Time;durP1;ratioP1;P1;durP2;ratioP2;P2;SDS_P1;SDS_P2;PMS_P1;PMS_P2;Temp;Humidity;BMP_temperature;BMP_pressure;BME280_temperature;BME280_humidity;BME280_pressure;Samples;Min_cycle;Max_cycle;Signal;HPM_P1;HPM_P2
2022/03/23 00:01:00;;;;;;;10.25;8.23;;;;;;;;;;5072257;28;20463;-75
2022/03/23 00:03:27;;;;;;;12.40;9.10;;;;;;;;;;5054839;28;20367;-76
2022/03/23 00:05:53;;;;;;;10.50;8.45;;;;;;;;;;5072346;28;20470;-74
2022/03/23 00:08:21;;;;;;;9.10;7.25;;;;;;;;;;5073086;28;20033;-75
2022/03/23 00:10:48;;;;;;;11.80;8.88;;;;;;;;;;5072660;28;20059;-75
2022/03/23 00:13:14;;;;;;;11.57;9.07;;;;;;;;;;5072838;28;20052;-75
2022/03/23 00:15:41;;;;;;;13.38;9.13;;;;;;;;;;5072307;28;20509;-74
2022/03/23 00:18:07;;;;;;;10.02;7.93;;;;;;;;;;5072924;28;20032;-75
2022/03/23 00:20:34;;;;;;;13.77;10.13;;;;;;;;;;5055148;28;20028;-75
2022/03/23 00:23:01;;;;;;;13.10;8.95;;;;;;;;;;5072482;28;20039;-74
2022/03/23 00:25:27;;;;;;;16.42;11.77;;;;;;;;;;5072639;28;20039;-74
2022/03/23 00:27:53;;;;;;;15.60;10.50;;;;;;;;;;5055124;28;20043;-74
2022/03/23 00:30:19;;;;;;;13.35;8.93;;;;;;;;;;5072682;28;20039;-74
2022/03/23 00:32:46;;;;;;;12.88;9.38;;;;;;;;;;5072615;28;20104;-74
2022/03/23 00:35:12;;;;;;;15.07;10.23;;;;;;;;;;5074902;28;20029;-74
2022/03/23 00:37:39;;;;;;;15.95;10.18;;;;;;;;;;5076075;28;20028;-74
2022/03/23 00:40:05;;;;;;;15.90;10.38;;;;;;;;;;5057632;28;20040;-74
2022/03/23 00:42:31;;;;;;;15.18;10.75;;;;;;;;;;5075646;28;20025;-75
2022/03/23 00:44:58;;;;;;;17.20;12.13;;;;;;;;;;5075333;28;20036;-75
2022/03/23 00:47:24;;;;;;;16.38;11.48;;;;;;;;;;5075882;28;20043;-75
2022/03/23 00:49:50;;;;;;;16.48;11.52;;;;;;;;;;5075584;28;20250;-74
2022/03/23 00:52:17;;;;;;;18.45;11.27;;;;;;;;;;5075430;28;20078;-74
2022/03/23 00:54:43;;;;;;;19.35;12.13;;;;;;;;;;5077492;28;20032;-75
2022/03/23 00:57:09;;;;;;;19.35;11.77;;;;;;;;;;5083861;28;20027;-74
2022/03/23 00:59:35;;;;;;;18.52;11.38;;;;;;;;;;5074236;28;20110;-75
2022/03/23 01:02:02;;;;;;;20.60;13.20;;;;;;;;;;5079466;28;20020;-74
2022/03/23 01:04:29;;;;;;;19.60;11.43;;;;;;;;;;5075065;28;20029;-74
2022/03/23 01:06:55;;;;;;;19.83;12.95;;;;;;;;;;5073765;28;20154;-74
2022/03/23 01:09:23;;;;;;;22.58;13.65;;;;;;;;;;5074405;28;20039;-74
2022/03/23 01:11:53;;;;;;;20.52;12.35;;;;;;;;;;5072361;28;20135;-74
2022/03/23 01:14:22;;;;;;;20.13;11.50;;;;;;;;;;5057604;28;20480;-74
2022/03/23 01:16:50;;;;;;;21.60;12.02;;;;;;;;;;5075303;28;20389;-75
2022/03/23 01:19:17;;;;;;;19.38;10.82;;;;;;;;;;5055359;28;20028;-75
2022/03/23 01:21:44;;;;;;;27.02;15.02;;;;;;;;;;5055393;28;20028;-75
2022/03/23 01:24:10;;;;;;;23.90;14.18;;;;;;;;;;5074080;28;20049;-75
2022/03/23 01:26:37;;;;;;;15.10;10.20;;;;;;;;;;5074897;28;20032;-75
2022/03/23 01:29:04;;;;;;;14.75;9.63;;;;;;;;;;5073591;28;20025;-75
2022/03/23 01:31:31;;;;;;;10.60;6.90;;;;;;;;;;5075305;28;20470;-75
2022/03/23 01:33:59;;;;;;;11.07;8.23;;;;;;;;;;5075418;28;20077;-75
2022/03/23 01:36:29;;;;;;;11.88;8.73;;;;;;;;;;5075059;28;20027;-75
2022/03/23 01:38:56;;;;;;;11.10;8.23;;;;;;;;;;5073708;28;20104;-75
2022/03/23 01:41:22;;;;;;;12.52;8.82;;;;;;;;;;5074505;28;20040;-75
2022/03/23 01:43:49;;;;;;;12.75;10.00;;;;;;;;;;5072589;28;20086;-75
2022/03/23 01:46:18;;;;;;;10.98;7.93;;;;;;;;;;5081183;28;20028;-76
2022/03/23 01:48:45;;;;;;;10.40;7.63;;;;;;;;;;5072259;28;20036;-75
2022/03/23 01:51:12;;;;;;;14.80;9.70;;;;;;;;;;5076169;28;20036;-76
2022/03/23 01:53:38;;;;;;;15.85;10.55;;;;;;;;;;5070664;28;20487;-76
2022/03/23 01:56:05;;;;;;;22.02;14.18;;;;;;;;;;5072350;28;20028;-76
2022/03/23 01:58:31;;;;;;;26.00;15.68;;;;;;;;;;5077247;28;20402;-76
2022/03/23 02:00:58;;;;;;;30.95;18.92;;;;;;;;;;5075270;28;20054;-76
2022/03/23 02:03:24;;;;;;;30.30;18.42;;;;;;;;;;5078525;28;20028;-76
2022/03/23 02:05:50;;;;;;;33.05;21.20;;;;;;;;;;5081536;28;20535;-76
2022/03/23 02:08:16;;;;;;;33.35;20.42;;;;;;;;;;5077036;28;20032;-76
2022/03/23 02:10:43;;;;;;;30.60;20.40;;;;;;;;;;5081570;28;20386;-77
2022/03/23 02:13:09;;;;;;;40.92;25.45;;;;;;;;;;5066427;28;20067;-76
2022/03/23 02:15:36;;;;;;;38.75;23.85;;;;;;;;;;5071376;28;20463;-76
2022/03/23 02:18:02;;;;;;;47.90;27.70;;;;;;;;;;5072389;28;20031;-76
2022/03/23 02:20:28;;;;;;;36.28;25.20;;;;;;;;;;5068902;28;20028;-77
2022/03/23 02:22:55;;;;;;;35.35;22.98;;;;;;;;;;5075054;28;20024;-76
2022/03/23 02:25:25;;;;;;;28.20;18.40;;;;;;;;;;5072810;28;20131;-77
2022/03/23 02:27:52;;;;;;;27.20;18.65;;;;;;;;;;5078659;28;20028;-76
2022/03/23 02:30:19;;;;;;;29.00;18.90;;;;;;;;;;5081495;28;20355;-77
2022/03/23 02:32:45;;;;;;;24.38;17.13;;;;;;;;;;5076225;28;20027;-77
2022/03/23 02:35:12;;;;;;;23.50;16.63;;;;;;;;;;5058630;28;20025;-77
2022/03/23 02:37:41;;;;;;;22.17;15.50;;;;;;;;;;5084095;28;20041;-76
2022/03/23 02:40:11;;;;;;;19.95;14.30;;;;;;;;;;5074761;28;20078;-77
2022/03/23 02:42:38;;;;;;;17.83;12.48;;;;;;;;;;5075867;28;20028;-76
2022/03/23 02:45:06;;;;;;;19.83;14.30;;;;;;;;;;5076229;28;20044;-76
2022/03/23 02:47:32;;;;;;;23.40;16.42;;;;;;;;;;5067145;28;20389;-76
2022/03/23 02:49:58;;;;;;;19.60;14.25;;;;;;;;;;5068857;28;20024;-76
2022/03/23 02:52:25;;;;;;;19.08;14.27;;;;;;;;;;5069900;28;20024;-76
2022/03/23 03:03:05;;;;;;;34.33;21.50;;;;;;;;;;5068278;28;20106;-76
2022/03/23 03:05:31;;;;;;;37.97;23.52;;;;;;;;;;5068886;28;20032;-77
2022/03/23 03:10:42;;;;;;;36.42;22.98;;;;;;;;;;5071059;28;20059;-76
2022/03/23 03:13:08;;;;;;;37.58;24.42;;;;;;;;;;5069532;28;20016;-76
2022/03/23 03:15:37;;;;;;;33.33;22.45;;;;;;;;;;5066609;28;20025;-77
2022/03/23 03:18:03;;;;;;;30.48;20.58;;;;;;;;;;5066496;28;20039;-75
2022/03/23 03:20:30;;;;;;;28.75;18.42;;;;;;;;;;5064044;28;20417;-77
2022/03/23 03:22:56;;;;;;;27.00;18.25;;;;;;;;;;5068549;28;20028;-77
2022/03/23 03:25:35;;;;;;;15.88;11.05;;;;;;;;;;5068774;28;20115;-78
2022/03/23 03:28:01;;;;;;;14.20;11.57;;;;;;;;;;5070264;28;20070;-77
2022/03/23 03:30:28;;;;;;;18.05;12.18;;;;;;;;;;5072244;28;20444;-77
2022/03/23 03:32:54;;;;;;;18.45;14.52;;;;;;;;;;5055617;28;20212;-77
2022/03/23 03:35:20;;;;;;;20.52;14.43;;;;;;;;;;5068370;28;20095;-76
2022/03/23 03:37:49;;;;;;;21.50;16.60;;;;;;;;;;5066202;28;20024;-77
2022/03/23 03:40:15;;;;;;;21.58;15.77;;;;;;;;;;5055373;28;20032;-76
2022/03/23 03:42:42;;;;;;;24.75;18.30;;;;;;;;;;5070509;28;20435;-77
2022/03/23 03:45:08;;;;;;;26.55;19.02;;;;;;;;;;5062383;28;20033;-78
2022/03/23 03:47:35;;;;;;;37.67;21.95;;;;;;;;;;5048214;28;20485;-78
2022/03/23 03:50:01;;;;;;;34.92;23.88;;;;;;;;;;5067673;28;20392;-78
2022/03/23 03:52:28;;;;;;;33.55;24.27;;;;;;;;;;5066572;28;20162;-79
2022/03/23 03:54:54;;;;;;;38.30;25.70;;;;;;;;;;5066156;28;20021;-77
2022/03/23 03:57:20;;;;;;;39.40;26.33;;;;;;;;;;5063971;28;20045;-77
2022/03/23 03:59:47;;;;;;;38.25;27.00;;;;;;;;;;5068982;28;20028;-76
2022/03/23 04:02:14;;;;;;;38.13;26.50;;;;;;;;;;5066093;28;20017;-76
2022/03/23 04:04:40;;;;;;;37.88;26.92;;;;;;;;;;5069880;28;20741;-77
2022/03/23 04:07:06;;;;;;;37.92;25.95;;;;;;;;;;5069038;28;20036;-79
2022/03/23 04:09:33;;;;;;;41.45;29.42;;;;;;;;;;5073370;28;20031;-78
2022/03/23 04:11:59;;;;;;;33.45;23.85;;;;;;;;;;5063189;28;20036;-77
2022/03/23 04:14:25;;;;;;;20.35;16.48;;;;;;;;;;5071317;28;20108;-77
2022/03/23 04:16:51;;;;;;;21.67;17.02;;;;;;;;;;5073165;28;20032;-76
2022/03/23 04:19:20;;;;;;;20.20;15.18;;;;;;;;;;5070770;28;20110;-79
2022/03/23 04:21:49;;;;;;;18.27;14.48;;;;;;;;;;5072718;28;20452;-76
2022/03/23 04:24:15;;;;;;;19.50;14.35;;;;;;;;;;5074815;28;20501;-78
2022/03/23 04:26:44;;;;;;;18.65;14.00;;;;;;;;;;5054171;28;20060;-78
2022/03/23 04:29:10;;;;;;;19.60;16.08;;;;;;;;;;5071042;28;20028;-78
2022/03/23 04:31:37;;;;;;;24.75;17.77;;;;;;;;;;5067836;28;20562;-78
2022/03/23 04:34:03;;;;;;;19.30;15.90;;;;;;;;;;5068318;28;20027;-77
2022/03/23 04:36:29;;;;;;;17.95;14.07;;;;;;;;;;5066706;28;20121;-77
2022/03/23 04:38:56;;;;;;;16.58;12.45;;;;;;;;;;5073069;28;20401;-77
2022/03/23 04:41:29;;;;;;;16.73;12.75;;;;;;;;;;5068704;28;20033;-78
2022/03/23 04:43:55;;;;;;;17.33;13.77;;;;;;;;;;5050335;28;20472;-76
2022/03/23 04:46:21;;;;;;;19.77;16.02;;;;;;;;;;5071535;28;20040;-76
2022/03/23 04:48:48;;;;;;;21.35;15.82;;;;;;;;;;5066147;28;20066;-77
2022/03/23 04:51:14;;;;;;;21.75;16.05;;;;;;;;;;5071677;28;20043;-78
2022/03/23 04:53:40;;;;;;;19.75;14.93;;;;;;;;;;5053272;28;20027;-76
2022/03/23 04:56:07;;;;;;;17.42;12.85;;;;;;;;;;5065121;28;20100;-76
2022/03/23 04:58:37;;;;;;;18.25;13.25;;;;;;;;;;5052009;28;20035;-77
2022/03/23 05:01:03;;;;;;;14.57;10.85;;;;;;;;;;5070523;28;20028;-75
2022/03/23 05:03:30;;;;;;;17.40;11.93;;;;;;;;;;5075478;28;20043;-76
2022/03/23 05:05:56;;;;;;;15.88;12.20;;;;;;;;;;5072531;28;20028;-77
2022/03/23 05:08:23;;;;;;;18.17;12.77;;;;;;;;;;5068650;28;20039;-78
2022/03/23 05:10:49;;;;;;;23.98;17.90;;;;;;;;;;5070027;28;20163;-79
2022/03/23 05:13:16;;;;;;;27.17;18.92;;;;;;;;;;5068345;28;20025;-77
2022/03/23 05:15:42;;;;;;;25.92;19.92;;;;;;;;;;5069089;28;20031;-78
2022/03/23 05:18:08;;;;;;;30.10;22.42;;;;;;;;;;5069644;28;20032;-78
2022/03/23 05:20:35;;;;;;;36.17;23.50;;;;;;;;;;5073036;28;20174;-76
2022/03/23 05:23:02;;;;;;;33.03;23.38;;;;;;;;;;5074954;28;20076;-76
2022/03/23 05:25:28;;;;;;;43.13;30.30;;;;;;;;;;5069836;28;20036;-76
2022/03/23 05:27:54;;;;;;;56.58;36.88;;;;;;;;;;5076012;28;20028;-77
2022/03/23 05:30:21;;;;;;;67.00;41.78;;;;;;;;;;5073383;28;20032;-77
2022/03/23 05:32:47;;;;;;;62.75;41.83;;;;;;;;;;5069479;28;20424;-77
2022/03/23 05:35:14;;;;;;;63.13;39.70;;;;;;;;;;5072249;28;20024;-78
2022/03/23 05:37:41;;;;;;;60.67;40.50;;;;;;;;;;5072427;28;20054;-77
2022/03/23 05:40:08;;;;;;;71.15;43.72;;;;;;;;;;5069305;28;20028;-77
2022/03/23 05:42:34;;;;;;;74.55;46.72;;;;;;;;;;5068676;28;20016;-77
2022/03/23 05:45:00;;;;;;;79.28;47.90;;;;;;;;;;5057922;28;20039;-78
2022/03/23 05:47:27;;;;;;;97.13;55.03;;;;;;;;;;5070845;28;20448;-78
2022/03/23 05:49:53;;;;;;;88.53;54.72;;;;;;;;;;5067816;28;20028;-77
2022/03/23 05:52:19;;;;;;;80.57;51.40;;;;;;;;;;5068109;28;20020;-77
2022/03/23 05:54:46;;;;;;;82.78;49.17;;;;;;;;;;5063450;28;20024;-77
2022/03/23 05:57:13;;;;;;;89.82;52.97;;;;;;;;;;5042074;28;20028;-78
2022/03/23 05:59:39;;;;;;;90.32;55.80;;;;;;;;;;5065596;28;20406;-78
2022/03/23 06:02:05;;;;;;;103.68;58.67;;;;;;;;;;5064032;28;20045;-77
2022/03/23 06:04:32;;;;;;;85.10;52.88;;;;;;;;;;5066657;28;20043;-77
2022/03/23 06:06:58;;;;;;;91.65;57.47;;;;;;;;;;5071495;28;20043;-77
2022/03/23 06:09:24;;;;;;;92.22;54.97;;;;;;;;;;5068701;28;20074;-77
2022/03/23 06:11:51;;;;;;;87.38;51.75;;;;;;;;;;5067977;28;20129;-77
2022/03/23 06:14:17;;;;;;;93.38;53.63;;;;;;;;;;5068599;28;20526;-77
2022/03/23 06:16:43;;;;;;;88.63;54.20;;;;;;;;;;5067654;28;20386;-76
2022/03/23 06:19:10;;;;;;;96.63;58.47;;;;;;;;;;5069476;28;20056;-77
2022/03/23 06:21:36;;;;;;;92.72;59.25;;;;;;;;;;5051150;28;20472;-76
2022/03/23 06:24:06;;;;;;;113.95;63.05;;;;;;;;;;5055264;28;20052;-78
2022/03/23 06:26:33;;;;;;;97.13;57.88;;;;;;;;;;5049365;28;20318;-76
2022/03/23 06:28:59;;;;;;;105.68;61.78;;;;;;;;;;5045369;28;20036;-77
2022/03/23 06:31:25;;;;;;;115.40;62.80;;;;;;;;;;5066632;28;20045;-77
2022/03/23 06:33:51;;;;;;;97.75;59.90;;;;;;;;;;5063736;28;20027;-76
2022/03/23 06:36:18;;;;;;;95.82;56.95;;;;;;;;;;5063272;28;20512;-77
2022/03/23 06:38:44;;;;;;;98.78;59.85;;;;;;;;;;5063038;28;20047;-77
2022/03/23 06:41:11;;;;;;;99.95;60.97;;;;;;;;;;5073858;28;20048;-78
2022/03/23 06:43:38;;;;;;;94.93;56.38;;;;;;;;;;5065074;28;20203;-76
2022/03/23 06:46:05;;;;;;;95.95;57.70;;;;;;;;;;5049148;28;20130;-76
2022/03/23 06:48:31;;;;;;;90.20;54.40;;;;;;;;;;5047945;28;20063;-76
2022/03/23 06:50:57;;;;;;;97.82;60.28;;;;;;;;;;5060622;28;20092;-76
2022/03/23 06:53:24;;;;;;;110.75;62.92;;;;;;;;;;5063987;28;20370;-77
2022/03/23 06:55:50;;;;;;;95.15;57.15;;;;;;;;;;5068785;28;20098;-76
2022/03/23 06:58:16;;;;;;;92.05;55.38;;;;;;;;;;5075532;28;20204;-77
2022/03/23 07:00:43;;;;;;;103.20;63.90;;;;;;;;;;5067480;28;20069;-76
2022/03/23 07:03:09;;;;;;;85.80;53.92;;;;;;;;;;5063441;28;20401;-77
2022/03/23 07:05:36;;;;;;;96.32;56.40;;;;;;;;;;5065746;28;20129;-76
2022/03/23 07:10:48;;;;;;;86.40;54.72;;;;;;;;;;5069653;28;20426;-76
2022/03/23 07:13:24;;;;;;;81.97;51.53;;;;;;;;;;5066682;28;20455;-78
2022/03/23 07:15:50;;;;;;;75.07;45.50;;;;;;;;;;5058218;28;20569;-77
2022/03/23 07:18:16;;;;;;;64.63;40.33;;;;;;;;;;5062032;28;20032;-78
2022/03/23 07:20:53;;;;;;;61.80;39.13;;;;;;;;;;5065684;28;20036;-78
2022/03/23 07:23:19;;;;;;;58.70;36.88;;;;;;;;;;5067395;28;20725;-79
2022/03/23 07:25:46;;;;;;;60.83;40.05;;;;;;;;;;5069990;28;20372;-79
2022/03/23 07:28:12;;;;;;;65.30;38.97;;;;;;;;;;5066726;28;20389;-79
2022/03/23 07:30:41;;;;;;;67.28;41.85;;;;;;;;;;5066985;28;20043;-78
2022/03/23 07:33:09;;;;;;;60.67;38.42;;;;;;;;;;5050233;28;20028;-78
2022/03/23 07:35:35;;;;;;;54.35;34.35;;;;;;;;;;5063436;28;20033;-79
2022/03/23 07:38:01;;;;;;;54.95;37.30;;;;;;;;;;5046130;28;20052;-79
2022/03/23 07:40:27;;;;;;;57.78;38.35;;;;;;;;;;5063540;28;20441;-79
2022/03/23 07:42:54;;;;;;;62.47;38.47;;;;;;;;;;5066905;28;20029;-78
2022/03/23 07:45:20;;;;;;;54.55;36.08;;;;;;;;;;5067862;28;20028;-78
2022/03/23 07:47:46;;;;;;;58.47;38.15;;;;;;;;;;5067353;28;20501;-78
2022/03/23 07:50:12;;;;;;;68.00;41.83;;;;;;;;;;5070344;28;20028;-80
2022/03/23 07:52:39;;;;;;;65.70;39.95;;;;;;;;;;5069398;28;20445;-77
2022/03/23 07:55:05;;;;;;;64.45;36.65;;;;;;;;;;5065411;28;20055;-78
2022/03/23 07:57:32;;;;;;;64.85;39.88;;;;;;;;;;5066909;28;20520;-79
2022/03/23 07:59:59;;;;;;;69.32;40.60;;;;;;;;;;5058758;28;20056;-79
2022/03/23 08:02:26;;;;;;;52.72;34.80;;;;;;;;;;5057515;28;20090;-77
2022/03/23 08:05:07;;;;;;;52.75;34.60;;;;;;;;;;5065966;28;20081;-81
2022/03/23 08:07:33;;;;;;;48.63;33.83;;;;;;;;;;5063058;28;20024;-80
2022/03/23 08:09:59;;;;;;;52.00;32.78;;;;;;;;;;5062747;28;20035;-80
2022/03/23 08:12:26;;;;;;;40.83;29.10;;;;;;;;;;5065893;28;20029;-79
2022/03/23 08:14:52;;;;;;;45.78;29.42;;;;;;;;;;5066631;28;20091;-79
2022/03/23 08:17:19;;;;;;;32.80;23.30;;;;;;;;;;5070493;28;20119;-79
2022/03/23 08:20:32;;;;;;;34.05;23.00;;;;;;;;;;5069608;28;20016;-79
2022/03/23 08:22:31;;;;;;;33.55;21.45;;;;;;;;;;5064283;28;20036;-78
2022/03/23 08:24:58;;;;;;;30.73;20.08;;;;;;;;;;5065970;28;20102;-79
2022/03/23 08:27:24;;;;;;;29.58;20.17;;;;;;;;;;5066227;28;20032;-79
2022/03/23 08:29:50;;;;;;;32.20;21.88;;;;;;;;;;5065253;28;20017;-78
2022/03/23 08:32:22;;;;;;;33.45;22.63;;;;;;;;;;5065767;28;20107;-80
2022/03/23 08:34:50;;;;;;;36.40;23.63;;;;;;;;;;5057565;28;20369;-79
2022/03/23 08:37:16;;;;;;;29.40;20.45;;;;;;;;;;5060063;28;20025;-78
2022/03/23 08:39:43;;;;;;;29.70;21.02;;;;;;;;;;5065436;28;20028;-79
2022/03/23 08:42:09;;;;;;;30.77;20.33;;;;;;;;;;5072632;28;20356;-78
2022/03/23 08:44:35;;;;;;;31.60;19.50;;;;;;;;;;5069448;28;20021;-79
2022/03/23 08:47:02;;;;;;;36.38;23.23;;;;;;;;;;5065346;28;20041;-78
2022/03/23 08:49:28;;;;;;;39.47;26.13;;;;;;;;;;5063490;28;20111;-78
2022/03/23 08:51:54;;;;;;;43.58;29.20;;;;;;;;;;5063795;28;20050;-78
2022/03/23 08:54:22;;;;;;;50.83;31.38;;;;;;;;;;5044010;28;20380;-78
2022/03/23 08:56:52;;;;;;;43.58;30.48;;;;;;;;;;5067603;28;20028;-78
2022/03/23 08:59:18;;;;;;;48.03;30.92;;;;;;;;;;5066326;28;20076;-77
2022/03/23 09:01:47;;;;;;;47.13;32.38;;;;;;;;;;5061297;28;20272;-78
2022/03/23 09:04:13;;;;;;;47.83;33.10;;;;;;;;;;5060625;28;20471;-78
2022/03/23 09:06:40;;;;;;;48.65;32.35;;;;;;;;;;5043593;28;20036;-77
2022/03/23 09:09:06;;;;;;;47.08;32.15;;;;;;;;;;5062629;28;20033;-78
2022/03/23 09:11:32;;;;;;;46.47;31.67;;;;;;;;;;5068765;28;20085;-78
2022/03/23 09:13:59;;;;;;;41.78;27.92;;;;;;;;;;5072658;28;20376;-78
2022/03/23 09:16:26;;;;;;;37.47;23.98;;;;;;;;;;5062080;28;20020;-77
2022/03/23 09:18:52;;;;;;;41.30;27.88;;;;;;;;;;5062560;28;20100;-79
2022/03/23 09:21:18;;;;;;;40.05;26.88;;;;;;;;;;5068429;28;20033;-78
2022/03/23 09:23:45;;;;;;;43.53;28.25;;;;;;;;;;5063157;28;20041;-78
2022/03/23 09:26:14;;;;;;;37.90;26.80;;;;;;;;;;5065034;28;20138;-78
2022/03/23 09:28:40;;;;;;;37.83;25.33;;;;;;;;;;5063343;28;20090;-77
2022/03/23 09:31:06;;;;;;;40.50;25.40;;;;;;;;;;5064022;28;20028;-78
2022/03/23 09:33:43;;;;;;;38.67;24.98;;;;;;;;;;5047353;28;20028;-80
2022/03/23 09:38:55;;;;;;;41.78;26.35;;;;;;;;;;5065338;28;20082;-78
2022/03/23 09:41:21;;;;;;;40.30;27.10;;;;;;;;;;5069649;28;20033;-78
2022/03/23 09:43:48;;;;;;;47.17;27.73;;;;;;;;;;5044830;28;20025;-78
2022/03/23 09:46:16;;;;;;;45.42;29.75;;;;;;;;;;5064801;28;20502;-78
2022/03/23 09:48:43;;;;;;;45.63;29.48;;;;;;;;;;5061976;28;20116;-78
2022/03/23 09:51:11;;;;;;;50.58;32.45;;;;;;;;;;5070199;28;20036;-78
2022/03/23 09:53:38;;;;;;;48.33;32.28;;;;;;;;;;5069743;28;20036;-78
2022/03/23 09:56:04;;;;;;;51.13;31.52;;;;;;;;;;5070296;28;20052;-77
2022/03/23 09:58:30;;;;;;;49.67;32.72;;;;;;;;;;5071199;28;20031;-78
2022/03/23 10:00:57;;;;;;;51.42;33.80;;;;;;;;;;5065176;28;20028;-77
2022/03/23 10:03:43;;;;;;;55.08;36.80;;;;;;;;;;5070230;28;20033;-77
2022/03/23 10:06:18;;;;;;;56.95;33.15;;;;;;;;;;5071088;28;20506;-79
2022/03/23 10:09:03;;;;;;;55.35;35.95;;;;;;;;;;5070471;28;20029;-78
2022/03/23 10:11:48;;;;;;;57.47;34.67;;;;;;;;;;5067491;28;20089;-78
2022/03/23 10:14:33;;;;;;;59.30;35.28;;;;;;;;;;5067995;28;20029;-78
2022/03/23 10:17:18;;;;;;;54.25;37.33;;;;;;;;;;5067779;28;20029;-78
2022/03/23 10:19:45;;;;;;;53.25;35.15;;;;;;;;;;5069511;28;20026;-78
2022/03/23 10:22:13;;;;;;;56.72;36.00;;;;;;;;;;5070062;28;20095;-77
2022/03/23 10:24:40;;;;;;;54.92;36.45;;;;;;;;;;5068474;28;20517;-77
2022/03/23 10:27:07;;;;;;;54.08;35.60;;;;;;;;;;5064865;28;20030;-77
2022/03/23 10:29:39;;;;;;;57.85;37.42;;;;;;;;;;5052058;28;20047;-78
2022/03/23 10:32:10;;;;;;;61.92;37.50;;;;;;;;;;5070185;28;20119;-78
2022/03/23 10:34:40;;;;;;;62.05;38.50;;;;;;;;;;5069681;28;20378;-78
2022/03/23 10:37:06;;;;;;;67.45;42.42;;;;;;;;;;5074026;28;20032;-77
2022/03/23 10:39:33;;;;;;;66.00;39.58;;;;;;;;;;5070860;28;20405;-78
2022/03/23 10:42:10;;;;;;;59.50;38.60;;;;;;;;;;5071623;28;20358;-78
2022/03/23 10:44:36;;;;;;;66.53;41.38;;;;;;;;;;5043404;28;20044;-77
2022/03/23 10:47:03;;;;;;;62.42;38.35;;;;;;;;;;5072872;28;20044;-77
2022/03/23 10:49:31;;;;;;;64.53;41.40;;;;;;;;;;5077074;28;20032;-77
2022/03/23 10:52:07;;;;;;;66.20;39.63;;;;;;;;;;5050559;28;20024;-76
2022/03/23 10:54:35;;;;;;;64.18;38.97;;;;;;;;;;5072081;28;20059;-77
2022/03/23 10:57:07;;;;;;;57.17;38.83;;;;;;;;;;5069375;28;20115;-78
2022/03/23 10:59:34;;;;;;;53.45;35.30;;;;;;;;;;5070339;28;20031;-78
2022/03/23 11:02:10;;;;;;;52.42;33.35;;;;;;;;;;5071286;28;20036;-77
2022/03/23 11:04:39;;;;;;;48.67;30.80;;;;;;;;;;5075837;28;20145;-76
2022/03/23 11:07:06;;;;;;;45.70;29.90;;;;;;;;;;5082087;28;20021;-77
2022/03/23 11:18:15;;;;;;;46.13;31.30;;;;;;;;;;5065041;28;20036;-78
2022/03/23 11:21:02;;;;;;;52.58;32.80;;;;;;;;;;5046868;28;20123;-77
2022/03/23 11:23:28;;;;;;;54.45;35.67;;;;;;;;;;5067329;28;22359;-78
2022/03/23 11:26:00;;;;;;;64.72;41.10;;;;;;;;;;5071455;28;20508;-77
2022/03/23 11:28:26;;;;;;;69.18;41.53;;;;;;;;;;5073390;28;20035;-77
2022/03/23 11:30:53;;;;;;;69.50;42.65;;;;;;;;;;5061226;28;20036;-77
2022/03/23 11:33:21;;;;;;;65.25;42.55;;;;;;;;;;5062185;28;20048;-77
2022/03/23 11:35:50;;;;;;;68.13;44.35;;;;;;;;;;5062753;28;20241;-76
2022/03/23 11:38:18;;;;;;;61.63;40.75;;;;;;;;;;5068803;28;20020;-78
2022/03/23 11:40:46;;;;;;;61.35;39.47;;;;;;;;;;5066265;28;20032;-77
2022/03/23 11:43:13;;;;;;;67.38;41.53;;;;;;;;;;5064873;28;20040;-79
2022/03/23 11:45:41;;;;;;;65.30;41.95;;;;;;;;;;5063232;28;20555;-77
2022/03/23 11:48:10;;;;;;;64.82;41.40;;;;;;;;;;5063825;28;20382;-78
2022/03/23 11:50:51;;;;;;;65.25;42.00;;;;;;;;;;5063568;28;20176;-77
2022/03/23 11:53:41;;;;;;;62.38;39.63;;;;;;;;;;5072846;28;20027;-77
2022/03/23 11:56:08;;;;;;;59.95;38.92;;;;;;;;;;5070109;28;20024;-76
2022/03/23 11:58:37;;;;;;;58.63;37.83;;;;;;;;;;5072582;28;20027;-78
2022/03/23 12:01:08;;;;;;;65.68;40.22;;;;;;;;;;5070958;28;20021;-78
2022/03/23 12:03:57;;;;;;;69.15;42.90;;;;;;;;;;5071130;28;20481;-78
2022/03/23 12:06:25;;;;;;;65.10;42.00;;;;;;;;;;5075109;28;20074;-78
2022/03/23 12:08:53;;;;;;;59.88;37.30;;;;;;;;;;5073843;28;20050;-77
2022/03/23 12:11:41;;;;;;;62.95;38.05;;;;;;;;;;5072021;28;20029;-78
2022/03/23 12:14:20;;;;;;;62.17;35.95;;;;;;;;;;5071095;28;20017;-78
2022/03/23 12:16:46;;;;;;;69.65;41.95;;;;;;;;;;5072807;28;20020;-78
2022/03/23 12:19:21;;;;;;;71.15;42.00;;;;;;;;;;5072937;28;20016;-76
2022/03/23 12:21:56;;;;;;;64.55;43.50;;;;;;;;;;5070817;28;20020;-77
2022/03/23 12:24:35;;;;;;;59.28;39.88;;;;;;;;;;5070881;28;20046;-77
2022/03/23 12:27:10;;;;;;;50.25;32.80;;;;;;;;;;5069494;28;20032;-76
2022/03/23 12:29:40;;;;;;;38.90;26.40;;;;;;;;;;5077927;28;20457;-77
2022/03/23 12:32:08;;;;;;;50.20;31.23;;;;;;;;;;5083893;28;20350;-77
2022/03/23 12:34:35;;;;;;;48.90;31.50;;;;;;;;;;5073448;28;20056;-77
2022/03/23 12:37:12;;;;;;;56.88;36.42;;;;;;;;;;5071169;28;20542;-76
2022/03/23 12:39:43;;;;;;;55.75;35.70;;;;;;;;;;5051647;28;20036;-76
2022/03/23 12:42:12;;;;;;;61.90;39.47;;;;;;;;;;5082870;28;20478;-77
2022/03/23 12:44:40;;;;;;;57.28;36.70;;;;;;;;;;5079058;28;20058;-75
2022/03/23 12:47:13;;;;;;;54.17;36.13;;;;;;;;;;5073599;28;20508;-74
2022/03/23 12:58:04;;;;;;;71.95;45.63;;;;;;;;;;5072848;28;20048;-75
2022/03/23 13:00:37;;;;;;;82.30;47.30;;;;;;;;;;5077071;28;20033;-75
2022/03/23 13:03:06;;;;;;;79.68;49.20;;;;;;;;;;5074850;28;20032;-75
2022/03/23 13:05:33;;;;;;;87.95;46.78;;;;;;;;;;5073540;28;20056;-74
2022/03/23 13:08:00;;;;;;;85.07;47.13;;;;;;;;;;5073395;28;20038;-76
2022/03/23 13:10:26;;;;;;;86.13;48.22;;;;;;;;;;5072854;28;20036;-75
2022/03/23 13:13:07;;;;;;;83.80;50.63;;;;;;;;;;5074112;28;20028;-76
2022/03/23 13:15:34;;;;;;;84.30;49.05;;;;;;;;;;5073502;28;20426;-75
2022/03/23 13:18:03;;;;;;;87.50;50.65;;;;;;;;;;5070742;28;20020;-75
2022/03/23 13:20:31;;;;;;;81.65;50.92;;;;;;;;;;5072563;28;20171;-75
2022/03/23 13:22:57;;;;;;;74.40;45.53;;;;;;;;;;5076264;28;20036;-76
2022/03/23 13:25:24;;;;;;;64.20;37.25;;;;;;;;;;5076174;28;20040;-75
2022/03/23 13:27:51;;;;;;;63.95;39.20;;;;;;;;;;5068365;28;20043;-75
2022/03/23 13:30:23;;;;;;;72.03;42.22;;;;;;;;;;5068218;28;20028;-75
2022/03/23 13:32:50;;;;;;;95.43;59.45;;;;;;;;;;5067121;28;20047;-76
2022/03/23 13:35:17;;;;;;;89.35;53.65;;;;;;;;;;5074963;28;20059;-75
2022/03/23 13:38:00;;;;;;;104.90;57.63;;;;;;;;;;5068724;28;20029;-75
2022/03/23 13:40:27;;;;;;;110.15;63.83;;;;;;;;;;5077763;28;20025;-75
2022/03/23 13:45:42;;;;;;;114.68;62.75;;;;;;;;;;5075676;28;20035;-75
2022/03/23 13:48:09;;;;;;;98.93;56.83;;;;;;;;;;5056734;28;20032;-74
2022/03/23 13:50:43;;;;;;;84.75;51.10;;;;;;;;;;5075074;28;20031;-75
2022/03/23 13:53:09;;;;;;;84.03;51.20;;;;;;;;;;5075096;28;20416;-73
2022/03/23 13:55:36;;;;;;;87.43;51.85;;;;;;;;;;5071716;28;20024;-74
2022/03/23 13:58:02;;;;;;;90.97;51.75;;;;;;;;;;5069612;28;20103;-74
2022/03/23 14:00:29;;;;;;;97.72;55.13;;;;;;;;;;5073301;28;20028;-74
2022/03/23 14:02:55;;;;;;;99.25;56.55;;;;;;;;;;5056411;28;20025;-74
2022/03/23 14:05:22;;;;;;;112.85;60.22;;;;;;;;;;5072199;28;20028;-75
2022/03/23 14:07:51;;;;;;;110.60;60.88;;;;;;;;;;5072992;28;20501;-74
2022/03/23 14:10:17;;;;;;;104.60;58.53;;;;;;;;;;5075416;28;20035;-74
2022/03/23 14:12:49;;;;;;;75.32;48.42;;;;;;;;;;5082760;28;20474;-75
2022/03/23 14:15:16;;;;;;;80.72;49.72;;;;;;;;;;5062499;28;20429;-74
2022/03/23 14:17:43;;;;;;;66.35;39.97;;;;;;;;;;5075429;28;20012;-75
2022/03/23 14:20:09;;;;;;;63.10;37.38;;;;;;;;;;5082048;28;20027;-74
2022/03/23 14:22:36;;;;;;;58.08;35.60;;;;;;;;;;5084290;28;20041;-74
2022/03/23 14:25:04;;;;;;;65.75;39.35;;;;;;;;;;5074673;28;20338;-74
2022/03/23 14:27:34;;;;;;;72.35;39.20;;;;;;;;;;5061931;28;20059;-75
2022/03/23 14:30:05;;;;;;;64.72;39.50;;;;;;;;;;5067985;28;20561;-75
2022/03/23 14:32:36;;;;;;;70.38;46.33;;;;;;;;;;5073972;28;20478;-75
2022/03/23 14:35:03;;;;;;;70.30;44.45;;;;;;;;;;5075092;28;20028;-75
2022/03/23 14:37:41;;;;;;;85.05;48.85;;;;;;;;;;5068853;28;20047;-74
2022/03/23 14:40:23;;;;;;;82.45;48.92;;;;;;;;;;5073494;28;20028;-74
2022/03/23 14:42:50;;;;;;;93.07;56.00;;;;;;;;;;5070499;28;20070;-75
2022/03/23 14:45:31;;;;;;;91.32;56.25;;;;;;;;;;5079384;28;20055;-75
2022/03/23 14:47:58;;;;;;;92.07;58.45;;;;;;;;;;5053237;28;20039;-75
2022/03/23 14:50:25;;;;;;;105.93;61.17;;;;;;;;;;5073157;28;20093;-74
2022/03/23 14:52:51;;;;;;;101.18;60.05;;;;;;;;;;5075720;28;20386;-74
2022/03/23 14:55:18;;;;;;;89.47;56.78;;;;;;;;;;5057400;28;20036;-75
2022/03/23 14:57:44;;;;;;;99.87;55.77;;;;;;;;;;5073421;28;20020;-74